FXMM/MSU METAR and TAF weather

Enter ICAO airport designator
Station Type Date Time Source
FXMM METAR 2018/10/13 15:00 UTC NOAA

FXMM 131500Z 36004KT 9999 SCT030 OVC090 14/10 Q1024


Station Type Date Time Source
FXMM Decoded METAR 2018/10/13 15:00 UTC NOAA

Maseru / Moshoeshoe, Lesotho (FXMM) 29-27S 027-33E
Oct 13, 2018 - 11:00 AM EDT / 2018.10.13 1500 UTC
Wind: from the N (360 degrees) at 5 MPH (4 KT):0
Visibility: greater than 7 mile(s):0
Sky conditions: overcast
Temperature: 57 F (14 C)
Dew Point: 50 F (10 C)
Relative Humidity: 76%
Pressure (altimeter): 30.24 in. Hg (1024 hPa)
ob: FXMM 131500Z 36004KT 9999 SCT030 OVC090 14/10 Q1024
cycle: 15

Station Type Date Time Source
FXMM TAF 2018/10/16 06:11 UTC NOAA

TAF FXMM 160400Z 1606/1706 00000KT 9999 FEW035
BECMG 1207/1209 27010KT FEW040TCU


Example: see airport list